Tabella Stazioni Meteo Lazio

Provincia di Frosinone
ID Località Altitudine Data Temp (°C) Temp Min (°C) Temp Max (°C) Hum (%) Pressure (hPa) Wind (Km/h) Wind Dir Wind Gust (Km/h) Wind Gust Max (Km/h) Rain (mm) Dewpoint (°C)
ILAZIOCA7 Stazione meteo Campoli Appennino – Via Treo 499 m s.l.m. 2018-12-10 21:40:00 5.9 4.8 14.4 57 1013.0 0.0 NNE 0.0 0.0 0.00 -2.0
ILAZIOPI2 Stazione meteo Pico – Colleponte 114 m s.l.m. 2018-12-10 20:05:01 6.6 4.5 17.6 74 1013.8 0.0 NO 0.0 32.2 0.00 2.3
INOWUND02 Stazione meteo Alvito – Colle Santa Lucia 465 m s.l.m. 2018-12-10 20:44:38 8.2 4.0 18.3 43 1006.9 2.5 SSW 3.6 43.9 0.00 -3.6
ILAZIOPO8 Stazione meteo Pontecorvo – Via Babuino 94 m s.l.m. 2018-12-10 20:00:06 8.5 3.9 16.9 71 1014.1 0.0 NNE 0.0 22.5 0.00 3.5
Provincia di Latina
ID Località Altitudine Data Temp (°C) Temp Min (°C) Temp Max (°C) Hum (%) Pressure (hPa) Wind (Km/h) Wind Dir Wind Gust (Km/h) Wind Gust Max (Km/h) Rain (mm) Dewpoint (°C)
ILAZIOCI9 Stazione meteo Cisterna – Centro Storico 81 m s.l.m. 2018-12-10 20:45:01 9.6 7.8 18.5 52 1014.9 12.2 N 18.4 35.6 0.30 0.2
ICISTERN7 Stazione meteo Cisterna – Indinvest LT 42 m s.l.m. 2018-12-10 20:45:01 10.5 9.8 17.1 57 1015.2 8.0 WNW 6.4 32.2 0.00 2.3
ILAZIOLA18 Stazione meteo Cisterna – San Valentino 93 m s.l.m. 2018-12-10 20:45:01 9.5 7.6 16.5 63 1002.2 8.6 W 9.7 47.9 0.00 2.8
ILATINA13 Stazione meteo Latina – Borgo Montello 31 m s.l.m. 2018-12-10 20:45:05 0.0 0.0 0.0 0 1009.2 0.0 N 0.0 0.0 0.00 0.0
Provincia di Roma
ID Località Altitudine Data Temp (°C) Temp Min (°C) Temp Max (°C) Hum (%) Pressure (hPa) Wind (Km/h) Wind Dir Wind Gust (Km/h) Wind Gust Max (Km/h) Rain (mm) Dewpoint (°C)
IROCCADI23 Stazione meteo Rocca di Papa – Pratoni del Vivaro 528 m s.l.m. 2018-12-10 21:45:02 6.4 4.9 11.7 66 1012.0 6.1 WNW 9.4 20.2 0.00 1.0
IVELLETR14 Stazione meteo Velletri – Crocefissi 227m 227 m s.l.m. 2018-12-10 21:24:19 4.4 3.5 16.0 82 1014.0 1.4 WSW 1.8 34.9 0.00 2.0
ILAZIOVE10 Stazione meteo Velletri – Crocefissi 259m 259 m s.l.m. 2018-12-10 20:45:05 10.4 7.3 16.1 48 1016.1 5.0 NE 7.2 56.2 0.00 -0.2
IROMAVEL2 Stazione meteo Velletri – 5 Archi 188 m s.l.m. 2018-12-10 20:45:03 12.6 6.3 16.1 20 1014.2 11.4 N 22.0 40.3 0.60 -9.8
IVELLETR20 Stazione meteo Velletri – Centro 380 m s.l.m. 2018-12-10 20:40:07 10.9 10.1 14.9 36 1013.2 25.6 N 43.9 99.0 0.00 -3.6
IVELLETR22 Stazione meteo Velletri – San Clemente 335 m s.l.m. 2018-12-10 20:45:03 11.6 11.4 12.5 30 1009.9 19.4 N 31.7 56.2 30.60 -5.4
IVELLETR18 Stazione meteo Velletri – Fontana Fiume 512 m s.l.m. 2018-12-10 21:00:00 7.9 7.9 13.9 59 1012.0 2.6 North 11.1 51.5 0.00 0.0
ILAZIOLA23 Stazione meteo Lariano – Centro 370 m s.l.m. 2018-12-10 21:20:13 9.8 7.5 13.8 45 1012.0 4.3 NNW 7.9 32.0 0.00 -2.0
ILAZIOMA6 Stazione meteo Artena – Macere 345 m s.l.m. 2018-12-10 21:34:25 7.4 6.8 12.9 59 1012.0 5.0 North 8.7 34.3 0.00 0.0
ILAZIOAR6 Stazione meteo Ardea – Via Pavia 20 m s.l.m. 2018-12-10 19:46:46 12.2 8.8 18.5 42 1015.4 0.0 NE 1.0 9.0 0.00 -0.4
ILAZIOPO4 Stazione meteo Pomezia – Via Federico Fellini 78 m s.l.m. 2018-12-10 20:44:10 10.6 10.2 16.1 48 1014.6 6.4 NW 6.4 27.4 0.00 0.0
INOWUND03 Stazione meteo Rocca di Papa – Monte Faete 970 m s.l.m. 2018-08-28 11:15:00 20.7 20.7 20.7 64 1017.1 2.5 SW 3.6 3.6 0.00 13.6
ILAZIOCE8 Stazione meteo Cerveteri – Madonna dei Canneti 106 m s.l.m. 2018-12-10 21:29:57 11.1 9.6 16.3 30 1014.0 15.4 North 15.8 32.0 0.00 -6.0
Provincia di Viterbo
ID Località Altitudine Data Temp (°C) Temp Min (°C) Temp Max (°C) Hum (%) Pressure (hPa) Wind (Km/h) Wind Dir Wind Gust (Km/h) Wind Gust Max (Km/h) Rain (mm) Dewpoint (°C)
INEPI3 Stazione meteo Nepi – Via Umiltà 216 m s.l.m. 2018-12-10 21:44:57 2.2 1.0 15.1 72 1014.0 0.6 NNW 1.8 29.5 0.00 -2.0
ILAZIOCI6 Stazione meteo Civita Castellana – Via del Forte 135 m s.l.m. 2018-12-09 23:59:59 14.2 3.3 14.6 62 1010.5 9.0 315 9.7 12.4 0.00 7.0
IVITERBO7 Stazione meteo Marta – Via Laertina 320 m s.l.m. 2018-12-10 20:04:55 10.1 5.8 14.1 52 1014.2 11.9 N 11.9 38.2 0.00 0.7
ILAZIOVI8 Stazione meteo San Lorenzo Nuovo – Piazza Europa 519 m s.l.m. 2018-12-10 20:04:47 7.3 7.3 12.9 43 1013.0 9.4 NNE 9.4 45.7 0.00 -4.5